createdAt,value
2024-03-25T00:00:15.736Z,8.70
2024-03-25T00:02:42.979Z,6.80
2024-03-25T00:05:10.467Z,9.40
2024-03-25T00:07:40.585Z,6.50
2024-03-25T00:10:09.349Z,9.00
2024-03-25T00:12:36.629Z,10.40
2024-03-25T00:15:04.212Z,12.10
2024-03-25T00:17:32.042Z,8.40
2024-03-25T00:19:59.315Z,10.20
2024-03-25T00:22:26.670Z,12.60
2024-03-25T00:24:53.833Z,9.90
2024-03-25T00:27:20.984Z,9.80
2024-03-25T00:29:48.097Z,9.40
2024-03-25T00:32:16.106Z,7.70
2024-03-25T00:34:43.218Z,9.40
2024-03-25T00:37:10.314Z,7.10
2024-03-25T00:39:38.904Z,11.20
2024-03-25T00:42:07.405Z,7.20
2024-03-25T00:44:34.600Z,10.10
2024-03-25T00:47:01.699Z,8.30
2024-03-25T00:49:28.835Z,8.50
2024-03-25T00:51:56.023Z,10.20
2024-03-25T00:54:24.669Z,10.20
2024-03-25T00:56:52.469Z,17.10
2024-03-25T00:59:19.643Z,12.90
2024-03-25T01:01:46.739Z,12.80
2024-03-25T01:04:14.239Z,13.10
2024-03-25T01:06:41.391Z,12.20
2024-03-25T01:09:09.018Z,11.00
2024-03-25T01:11:36.294Z,12.30
2024-03-25T01:14:03.598Z,9.20
2024-03-25T01:16:30.743Z,8.60
2024-03-25T01:18:59.327Z,8.50
2024-03-25T01:21:26.663Z,9.10
2024-03-25T01:23:53.890Z,7.60
2024-03-25T01:26:21.620Z,8.40
2024-03-25T01:28:48.800Z,9.80
2024-03-25T01:31:15.922Z,8.70
2024-03-25T01:33:43.472Z,9.00
2024-03-25T01:36:12.371Z,10.10
2024-03-25T01:38:39.479Z,11.10
2024-03-25T01:41:10.921Z,9.30
2024-03-25T01:43:38.182Z,8.80
2024-03-25T01:46:06.554Z,8.80
2024-03-25T01:48:33.727Z,8.40
2024-03-25T01:51:00.979Z,8.90
2024-03-25T01:53:29.044Z,10.00
2024-03-25T01:55:57.303Z,8.60
2024-03-25T01:58:24.580Z,8.00
2024-03-25T02:01:31.738Z,13.30
2024-03-25T02:03:58.989Z,8.00
2024-03-25T02:06:27.888Z,13.20
2024-03-25T02:08:56.042Z,16.20
2024-03-25T02:11:24.128Z,9.20
2024-03-25T02:13:51.659Z,7.90
2024-03-25T02:16:18.847Z,8.90
2024-03-25T02:18:45.997Z,8.10
2024-03-25T02:21:13.119Z,12.40
2024-03-25T02:23:40.257Z,6.40
2024-03-25T02:26:07.403Z,7.50
2024-03-25T02:28:34.708Z,7.40
2024-03-25T02:31:01.908Z,6.30
2024-03-25T02:33:29.032Z,4.80
2024-03-25T02:35:56.159Z,7.60
2024-03-25T02:38:23.279Z,7.90
2024-03-25T02:40:50.450Z,6.40
2024-03-25T02:43:22.187Z,7.10
2024-03-25T02:45:49.269Z,7.60
2024-03-25T02:48:16.592Z,7.10
2024-03-25T02:50:43.732Z,11.10
2024-03-25T02:53:10.850Z,7.50
2024-03-25T02:55:37.978Z,7.10
2024-03-25T02:58:05.073Z,6.00
2024-03-25T03:00:32.188Z,8.10
2024-03-25T03:02:59.327Z,8.80
2024-03-25T03:05:26.432Z,8.00
2024-03-25T03:07:53.539Z,9.30
2024-03-25T03:10:20.680Z,6.00
2024-03-25T03:12:47.782Z,3.60
2024-03-25T03:15:16.437Z,5.60
2024-03-25T03:17:43.587Z,5.80
2024-03-25T03:20:11.263Z,3.40
2024-03-25T03:22:38.408Z,6.40
2024-03-25T03:25:06.211Z,6.30
2024-03-25T03:27:33.316Z,4.30
2024-03-25T03:30:00.436Z,3.90
2024-03-25T03:32:27.942Z,6.80
2024-03-25T03:34:55.066Z,3.80
2024-03-25T03:37:22.248Z,5.00
2024-03-25T03:39:49.387Z,2.10
2024-03-25T03:42:16.474Z,2.10
2024-03-25T03:44:43.635Z,4.50
2024-03-25T03:47:10.768Z,3.00
2024-03-25T03:49:37.902Z,2.20
2024-03-25T03:52:05.313Z,3.60
2024-03-25T03:54:32.636Z,3.30
2024-03-25T03:56:59.743Z,3.10
2024-03-25T03:59:27.292Z,2.60
2024-03-25T04:01:54.604Z,3.90
2024-03-25T04:04:21.707Z,3.00
2024-03-25T04:06:49.383Z,3.50
2024-03-25T04:09:16.502Z,3.80
2024-03-25T04:11:43.627Z,3.30
2024-03-25T04:14:11.682Z,2.10
2024-03-25T04:16:38.887Z,4.20
2024-03-25T04:19:06.015Z,4.80
2024-03-25T04:21:33.190Z,3.10
2024-03-25T04:24:00.364Z,3.40
2024-03-25T04:26:27.429Z,2.80
2024-03-25T04:28:54.538Z,3.90
2024-03-25T04:31:22.209Z,3.50
2024-03-25T04:33:49.542Z,4.30
2024-03-25T04:36:16.906Z,2.80
2024-03-25T04:38:44.050Z,3.70
2024-03-25T04:41:11.169Z,3.40
2024-03-25T04:43:38.291Z,5.40
2024-03-25T04:46:06.023Z,5.80
2024-03-25T04:48:33.245Z,5.70
2024-03-25T04:51:01.441Z,2.70
2024-03-25T04:53:28.540Z,4.10
2024-03-25T04:55:55.699Z,2.40
2024-03-25T04:58:22.810Z,4.50
2024-03-25T05:00:50.000Z,2.20
2024-03-25T05:03:17.096Z,6.80
2024-03-25T05:05:44.232Z,6.40
2024-03-25T05:08:11.382Z,3.90
2024-03-25T05:10:38.510Z,6.30
2024-03-25T05:13:06.529Z,4.70
2024-03-25T05:15:33.693Z,4.30
2024-03-25T05:18:00.804Z,4.20
2024-03-25T05:20:29.028Z,8.70
2024-03-25T05:22:56.139Z,5.70
2024-03-25T05:25:29.717Z,6.40
2024-03-25T05:27:56.947Z,5.90
2024-03-25T05:30:24.327Z,5.40
2024-03-25T05:32:51.457Z,5.50
2024-03-25T05:35:18.637Z,7.50
2024-03-25T05:37:45.800Z,6.20
2024-03-25T05:40:13.107Z,6.60
2024-03-25T05:42:40.234Z,7.20
2024-03-25T05:45:07.956Z,6.90
2024-03-25T05:47:35.082Z,7.80
2024-03-25T05:50:04.612Z,9.30
2024-03-25T05:52:32.036Z,10.30
2024-03-25T05:54:59.124Z,10.40
2024-03-25T05:57:26.276Z,12.80
2024-03-25T05:59:53.427Z,8.00
2024-03-25T06:02:20.528Z,7.30
2024-03-25T06:04:47.642Z,6.90
2024-03-25T06:07:14.924Z,9.90
2024-03-25T06:09:42.105Z,7.30
2024-03-25T06:12:09.540Z,6.20
2024-03-25T06:14:36.918Z,9.10
2024-03-25T06:17:04.226Z,9.60
2024-03-25T06:19:31.411Z,11.70
2024-03-25T06:21:58.554Z,9.30
2024-03-25T09:11:27.795Z,3.60
2024-03-25T09:13:56.089Z,2.90
2024-03-25T09:16:24.318Z,2.90
2024-03-25T09:18:52.599Z,1.70
2024-03-25T09:21:21.281Z,2.90
2024-03-25T09:23:49.268Z,5.00
2024-03-25T09:26:16.539Z,4.20
2024-03-25T09:28:43.776Z,7.00
2024-03-25T09:31:11.035Z,6.10
2024-03-25T09:33:38.233Z,4.50
2024-03-25T09:36:06.777Z,3.40
2024-03-25T09:38:34.023Z,2.70
2024-03-25T09:41:01.297Z,3.90
2024-03-25T09:43:44.312Z,5.10
2024-03-25T09:46:11.574Z,2.90
2024-03-25T09:48:39.030Z,2.00
2024-03-25T09:51:06.557Z,1.60
2024-03-25T09:53:34.058Z,2.40
2024-03-25T09:56:01.469Z,1.80
2024-03-25T09:58:28.814Z,2.70
2024-03-25T10:00:56.345Z,3.40
2024-03-25T10:03:23.599Z,4.10
2024-03-25T10:05:51.213Z,2.60
2024-03-25T10:08:29.384Z,0.90
2024-03-25T10:10:57.138Z,5.30
2024-03-25T10:13:24.398Z,2.60
2024-03-25T10:15:51.670Z,6.30
2024-03-25T10:18:19.151Z,2.10
2024-03-25T10:20:53.005Z,2.90
2024-03-25T10:23:29.371Z,2.20
2024-03-25T10:25:56.496Z,3.80
2024-03-25T10:28:23.865Z,3.00
2024-03-25T10:30:51.146Z,4.10
2024-03-25T10:33:18.530Z,3.30
2024-03-25T10:35:46.009Z,4.30
2024-03-25T10:38:13.313Z,4.40
2024-03-25T10:40:40.969Z,4.90
2024-03-25T10:43:12.546Z,2.40
2024-03-25T10:45:43.558Z,4.20
2024-03-25T10:48:18.986Z,3.80
2024-03-25T10:50:46.222Z,2.90
2024-03-25T10:53:13.460Z,2.80
2024-03-25T10:55:41.285Z,5.20
2024-03-25T10:58:08.994Z,4.00
2024-03-25T11:00:36.436Z,6.20
2024-03-25T11:03:04.086Z,3.60
2024-03-25T11:05:31.306Z,2.70
2024-03-25T11:07:59.991Z,0.70
2024-03-25T11:10:30.837Z,1.30
2024-03-25T11:12:58.072Z,0.80
2024-03-25T11:15:25.452Z,0.80
2024-03-25T11:17:52.712Z,1.00
2024-03-25T11:20:19.897Z,2.40
2024-03-25T11:22:51.119Z,1.70
2024-03-25T11:25:19.092Z,3.30
2024-03-25T11:27:46.569Z,1.50
2024-03-25T11:30:16.999Z,1.60
2024-03-25T11:33:05.726Z,0.90
2024-03-25T11:35:39.270Z,1.20
2024-03-25T11:38:06.459Z,6.70
2024-03-25T11:40:33.660Z,2.00
2024-03-25T11:43:00.899Z,1.20
2024-03-25T11:45:28.247Z,1.70
2024-03-25T11:47:55.444Z,4.20
2024-03-25T11:50:23.091Z,1.50
2024-03-25T11:52:50.479Z,0.80
2024-03-25T11:55:18.309Z,1.30
2024-03-25T11:57:45.494Z,2.80
2024-03-25T12:00:15.451Z,1.40
2024-03-25T12:02:46.338Z,1.00
2024-03-25T12:05:18.054Z,1.00
2024-03-25T12:07:45.549Z,1.30
2024-03-25T12:10:31.747Z,1.80
2024-03-25T12:12:59.203Z,2.40
2024-03-25T12:15:27.683Z,1.10
2024-03-25T12:17:54.995Z,1.60
2024-03-25T12:20:24.355Z,1.80
2024-03-25T12:22:51.870Z,2.40
2024-03-25T12:25:20.015Z,1.10
2024-03-25T12:27:47.414Z,2.30
2024-03-25T12:30:14.733Z,0.80
2024-03-25T12:32:45.866Z,2.30
2024-03-25T12:35:14.377Z,2.70
2024-03-25T12:37:42.041Z,0.60
2024-03-25T12:40:11.837Z,3.30
2024-03-25T12:42:41.134Z,1.20
2024-03-25T12:45:09.009Z,0.90
2024-03-25T12:47:36.247Z,2.10
2024-03-25T12:50:04.847Z,1.60
2024-03-25T12:52:32.047Z,2.80
2024-03-25T12:54:59.206Z,1.20
2024-03-25T12:57:26.515Z,1.50
2024-03-25T12:59:53.808Z,0.80
2024-03-25T13:02:21.216Z,1.70
2024-03-25T13:04:48.499Z,1.40
2024-03-25T13:07:15.681Z,0.90
2024-03-25T13:09:43.555Z,1.60
2024-03-25T13:12:10.944Z,0.90
2024-03-25T13:14:38.147Z,0.70
2024-03-25T13:17:05.425Z,1.00
2024-03-25T13:19:32.621Z,1.70
2024-03-25T13:21:59.810Z,2.40
2024-03-25T13:24:27.400Z,0.90
2024-03-25T13:26:54.600Z,3.30
2024-03-25T13:29:21.848Z,1.00
2024-03-25T13:31:49.933Z,2.30
2024-03-25T13:34:18.627Z,3.00
2024-03-25T13:36:45.915Z,1.80
2024-03-25T13:39:13.310Z,2.70
2024-03-25T13:41:40.739Z,1.30
2024-03-25T13:44:08.427Z,2.50
2024-03-25T13:46:35.689Z,1.10
2024-03-25T13:49:03.072Z,1.50
2024-03-25T13:51:30.380Z,2.00
2024-03-25T13:53:57.586Z,0.90
2024-03-25T13:56:24.795Z,1.40
2024-03-25T13:58:51.975Z,2.40
2024-03-25T14:01:19.299Z,4.10
2024-03-25T14:03:47.200Z,1.00
2024-03-25T14:06:14.450Z,4.10
2024-03-25T14:08:43.268Z,1.80
2024-03-25T14:11:10.737Z,1.00
2024-03-25T14:13:37.942Z,1.20
2024-03-25T14:18:42.296Z,2.10
2024-03-25T14:21:09.497Z,2.00
2024-03-25T14:23:36.929Z,1.20
2024-03-25T14:26:04.434Z,2.00
2024-03-25T14:28:31.600Z,5.50
2024-03-25T14:30:58.824Z,0.60
2024-03-25T14:33:26.150Z,1.70
2024-03-25T14:35:53.412Z,0.90
2024-03-25T14:38:20.712Z,1.30
2024-03-25T14:40:48.144Z,1.40
2024-03-25T14:43:17.497Z,0.80
2024-03-25T14:45:46.309Z,1.30
2024-03-25T14:48:13.600Z,0.70
2024-03-25T14:50:40.809Z,1.00
2024-03-25T14:53:07.950Z,1.00
2024-03-25T14:55:35.251Z,1.00
2024-03-25T14:58:02.608Z,0.70
2024-03-25T15:00:29.805Z,1.00
2024-03-25T15:02:57.125Z,2.00
2024-03-25T15:05:24.391Z,1.20
2024-03-25T15:07:51.762Z,1.00
2024-03-25T15:10:19.109Z,0.70
2024-03-25T15:12:49.450Z,0.40
2024-03-25T15:15:17.599Z,2.10
2024-03-25T15:17:44.973Z,3.80
2024-03-25T15:20:12.753Z,0.50
2024-03-25T15:22:43.763Z,0.90
2024-03-25T15:25:11.430Z,0.30
2024-03-25T15:27:38.646Z,1.20
2024-03-25T15:30:07.119Z,0.40
2024-03-25T15:32:34.347Z,0.20
2024-03-25T15:35:02.449Z,1.30
2024-03-25T15:37:30.907Z,0.40
2024-03-25T15:39:58.211Z,0.50
2024-03-25T15:42:25.499Z,2.40
2024-03-25T15:44:55.750Z,0.70
2024-03-25T15:47:23.097Z,3.50
2024-03-25T15:49:51.828Z,1.70
2024-03-25T15:52:18.986Z,0.50
2024-03-25T15:54:46.346Z,1.20
2024-03-25T15:57:13.517Z,1.10
2024-03-25T15:59:40.729Z,0.90
2024-03-25T16:02:07.953Z,1.00
2024-03-25T16:04:35.146Z,0.30
2024-03-25T16:07:02.321Z,0.60
2024-03-25T16:09:32.700Z,1.10
2024-03-25T16:12:01.126Z,0.60
2024-03-25T16:14:34.732Z,1.20
2024-03-25T16:17:02.030Z,0.70
2024-03-25T16:19:29.227Z,1.40
2024-03-25T16:21:56.532Z,1.70
2024-03-25T16:24:23.722Z,0.70
2024-03-25T16:26:50.878Z,1.50
2024-03-25T16:29:18.153Z,1.40
2024-03-25T16:31:45.306Z,0.60
2024-03-25T16:34:13.201Z,2.30
2024-03-25T16:36:40.305Z,1.10
2024-03-25T16:39:09.146Z,0.80
2024-03-25T16:41:36.297Z,1.70
2024-03-25T16:44:04.365Z,1.30
2024-03-25T16:46:31.564Z,5.10
2024-03-25T16:48:58.699Z,1.10
2024-03-25T16:51:26.274Z,1.30
2024-03-25T16:53:53.648Z,1.60
2024-03-25T16:56:20.781Z,2.00
2024-03-25T16:58:47.943Z,1.70
2024-03-25T17:01:15.105Z,1.90
2024-03-25T17:03:42.318Z,1.20
2024-03-25T17:06:11.090Z,1.00
2024-03-25T17:08:39.701Z,2.00
2024-03-25T17:11:07.000Z,2.70
2024-03-25T17:13:34.721Z,2.10
2024-03-25T17:16:01.919Z,2.00
2024-03-25T17:18:29.042Z,2.40
2024-03-25T17:21:00.020Z,1.70
2024-03-25T17:23:27.215Z,1.60
2024-03-25T17:25:54.346Z,1.20
2024-03-25T17:28:21.474Z,1.70
2024-03-25T17:30:48.697Z,0.80
2024-03-25T17:33:16.779Z,3.30
2024-03-25T17:35:43.937Z,1.20
2024-03-25T17:38:11.214Z,2.10
2024-03-25T17:40:38.729Z,0.50
2024-03-25T17:43:06.048Z,1.20
2024-03-25T17:45:33.225Z,0.60
2024-03-25T17:48:00.450Z,0.40
2024-03-25T17:50:30.249Z,1.80
2024-03-25T17:52:57.507Z,1.00
2024-03-25T17:55:24.638Z,1.80
2024-03-25T17:57:51.932Z,2.70
2024-03-25T18:00:19.309Z,0.80
2024-03-25T18:02:48.269Z,0.50
2024-03-25T18:05:15.560Z,0.90
2024-03-25T18:07:44.421Z,0.70
2024-03-25T18:10:11.623Z,1.10
2024-03-25T18:12:38.776Z,2.40
2024-03-25T18:15:06.711Z,1.70
2024-03-25T18:17:34.557Z,2.30
2024-03-25T18:20:02.905Z,1.90
2024-03-25T18:22:30.065Z,1.60
2024-03-25T18:24:57.181Z,2.10
2024-03-25T18:27:24.648Z,1.70
2024-03-25T18:29:52.938Z,4.20
2024-03-25T18:32:20.076Z,2.40
2024-03-25T18:34:47.241Z,2.00
2024-03-25T18:37:14.415Z,1.70
2024-03-25T18:39:42.667Z,1.30
2024-03-25T18:42:09.822Z,0.80
2024-03-25T18:44:37.020Z,1.20
2024-03-25T18:47:04.309Z,1.70
2024-03-25T18:49:31.433Z,1.20
2024-03-25T18:51:58.626Z,1.00
2024-03-25T18:54:26.127Z,1.40
2024-03-25T18:56:53.260Z,1.20
2024-03-25T18:59:20.418Z,1.60
2024-03-25T19:01:47.585Z,1.80
2024-03-25T19:04:14.850Z,1.40
2024-03-25T19:06:42.030Z,5.70
2024-03-25T19:09:09.620Z,1.20
2024-03-25T19:11:36.751Z,3.50
2024-03-25T19:14:04.069Z,2.30
2024-03-25T19:16:31.302Z,2.60
2024-03-25T19:18:58.444Z,1.00
2024-03-25T19:21:25.662Z,2.70
2024-03-25T19:23:53.025Z,0.90
2024-03-25T19:26:20.286Z,2.40
2024-03-25T19:28:47.468Z,1.10
2024-03-25T19:31:14.638Z,0.50
2024-03-25T19:33:41.947Z,0.50
2024-03-25T19:36:13.136Z,1.00
2024-03-25T19:38:44.436Z,0.60
2024-03-25T19:41:11.570Z,0.30
2024-03-25T19:43:38.731Z,0.60
2024-03-25T19:46:05.861Z,0.60
2024-03-25T19:48:33.747Z,0.70
2024-03-25T19:51:00.863Z,0.60
2024-03-25T19:53:28.116Z,0.70
2024-03-25T19:56:01.874Z,1.20
2024-03-25T19:58:30.325Z,0.90
2024-03-25T20:00:57.553Z,1.40
2024-03-25T20:03:24.814Z,1.00
2024-03-25T20:05:52.166Z,0.50
2024-03-25T20:08:19.314Z,1.00
2024-03-25T20:10:46.417Z,0.50
2024-03-25T20:13:13.548Z,0.70
2024-03-25T20:15:40.710Z,1.10
2024-03-25T20:18:08.129Z,1.10
2024-03-25T20:20:35.241Z,0.70
2024-03-25T20:23:02.749Z,3.70
2024-03-25T20:25:29.906Z,0.60
2024-03-25T20:27:57.297Z,1.10
2024-03-25T20:30:24.450Z,1.10
2024-03-25T20:32:51.760Z,1.90
2024-03-25T20:35:20.494Z,1.20
2024-03-25T20:37:48.555Z,3.70
2024-03-25T20:40:16.013Z,0.50
2024-03-25T20:42:43.142Z,0.60
2024-03-25T20:45:13.295Z,1.50
2024-03-25T20:47:40.547Z,0.70
2024-03-25T20:50:08.253Z,3.10
2024-03-25T20:52:35.449Z,1.70
2024-03-25T20:55:03.239Z,2.00
2024-03-25T20:57:30.352Z,0.60
2024-03-25T20:59:58.656Z,1.10
2024-03-25T21:02:26.223Z,2.80
2024-03-25T21:04:53.326Z,1.90
2024-03-25T21:07:20.442Z,0.90
2024-03-25T21:09:47.581Z,0.80
2024-03-25T21:12:15.117Z,2.50
2024-03-25T21:14:42.260Z,1.70
2024-03-25T21:17:09.652Z,1.80
2024-03-25T21:19:37.271Z,1.00
2024-03-25T21:22:04.432Z,2.00
2024-03-25T21:24:31.596Z,0.60
2024-03-25T21:26:59.186Z,0.80
2024-03-25T21:29:26.454Z,0.80
2024-03-25T21:31:53.919Z,0.70
2024-03-25T21:34:21.082Z,0.90
2024-03-25T21:36:48.246Z,1.30
2024-03-25T21:39:15.348Z,0.40
2024-03-25T21:41:45.624Z,0.80
2024-03-25T21:44:12.823Z,1.40
2024-03-25T21:46:39.990Z,1.60
2024-03-25T21:49:07.064Z,1.30
2024-03-25T21:51:34.238Z,0.60
2024-03-25T21:54:01.306Z,0.90
2024-03-25T21:56:28.422Z,0.70
2024-03-25T21:58:55.527Z,0.90
2024-03-25T22:01:22.605Z,1.30
2024-03-25T22:03:49.751Z,1.60
2024-03-25T22:06:16.980Z,2.00
2024-03-25T22:08:47.085Z,0.70
2024-03-25T22:11:14.241Z,0.60
2024-03-25T22:13:41.351Z,1.20
2024-03-25T22:16:08.575Z,0.50
2024-03-25T22:18:35.687Z,0.60
2024-03-25T22:21:06.342Z,1.40
2024-03-25T22:23:33.476Z,0.60
2024-03-25T22:26:00.670Z,0.40
2024-03-25T22:28:28.291Z,0.50
2024-03-25T22:31:02.029Z,0.40
2024-03-25T22:33:29.195Z,0.50
2024-03-25T22:35:57.261Z,1.30
2024-03-25T22:38:25.062Z,0.60
2024-03-25T22:40:54.109Z,0.70
2024-03-25T22:43:21.244Z,1.50
2024-03-25T22:46:01.708Z,1.60
2024-03-25T22:48:29.406Z,0.40
2024-03-25T22:51:01.013Z,0.90
2024-03-25T22:53:28.716Z,0.60
2024-03-25T22:56:03.690Z,0.60
2024-03-25T22:58:31.926Z,0.30
2024-03-25T23:01:07.653Z,1.10
2024-03-25T23:03:35.101Z,0.40
2024-03-25T23:06:05.452Z,0.40
2024-03-25T23:08:32.748Z,0.20
2024-03-25T23:11:00.485Z,0.30
2024-03-25T23:13:28.072Z,1.00
2024-03-25T23:15:55.430Z,0.30
2024-03-25T23:18:22.620Z,0.40
2024-03-25T23:20:50.734Z,0.60
2024-03-25T23:23:18.331Z,1.40
2024-03-25T23:25:46.670Z,0.30
2024-03-25T23:28:14.551Z,0.50
2024-03-25T23:30:41.899Z,0.50
2024-03-25T23:33:09.014Z,0.40
2024-03-25T23:35:36.982Z,0.80
2024-03-25T23:38:04.575Z,0.20
2024-03-25T23:40:31.736Z,1.00
2024-03-25T23:42:59.464Z,0.70
2024-03-25T23:45:26.740Z,1.10
2024-03-25T23:47:54.580Z,1.00
2024-03-25T23:50:21.931Z,0.80
2024-03-25T23:52:50.414Z,0.20
2024-03-25T23:55:17.752Z,0.30
2024-03-25T23:57:45.190Z,0.60
